Pagrindinis puslapis
METAR-TAF:

METAR-TAF

Oro uostai :

Landžou, Kinija

platuma: 36-02N, ilguma: 103-52E, Aukštis: 1518 m

Dabartinis oras

Ataskaita buvo paskelbta 58 minutes, ne 23:00 UTC
Vėjas 2 kt iš Šiaurės
Temperatūra -1°C
Drėgmė 86%
Slėgis 1011 hPa
Matomumas: 7000 m
Su prošvaistėmis ne aukštis 2000 ft

METAR: ZLLL 142300Z 35001MPS 7000 BKN020 M01/M03 Q1011 NOSIG

Laikas: 07:58 (23:58 UTC)

Prognozė

Ataskaita buvo paskelbta 4 valandos ir 44 minutes, ne 19:14 UTC
Prognozė galioja nuo 15 metu 00 UTC su 15 metu 24 UTC
Vėjas 6 kt iš Šiaurės/Šiaurės Rytų
Matomumas: 6000 m
Su prošvaistėmis ne aukštis 4000 ft

TAF: ZLLL 141914Z 1500/1524 03003MPS 6000 BKN040 TX02/1508Z TNM09/23Z

Orai ataskaitas ir orų prognozės (METAR, TAF).

turimą stotys yra geltonos ir raudonos taškus žemėlapyje.

Perkelti pele per norėdami pamatyti stoties vardą.

Tada spustelėkite, norėdami matyti oro stebėjimo ir prognozės.

Norėdami pakeisti žemėlapį: spustelėkite ant žalios mygtukų su juodo kryžiaus žemyn,; žalią mygtuką su brūkšneliu, jei norite nutolinti; arba žalių rodyklių gretimoms žemėlapius.


METAR-TAF: